Time;durP1;ratioP1;P1;durP2;ratioP2;P2;SDS_P1;SDS_P2;PMS_P1;PMS_P2;Temp;Humidity;BMP_temperature;BMP_pressure;BME280_temperature;BME280_humidity;BME280_pressure;Samples;Min_cycle;Max_cycle;Signal;HPM_P1;HPM_P2
2022/04/27 00:01:25;;;;;;;11.00;7.30;;;10.60;99.90;;;;;;5063111;28;21024;-88
2022/04/27 00:03:52;;;;;;;10.53;7.60;;;10.60;99.90;;;;;;5062305;28;20480;-88
2022/04/27 00:06:19;;;;;;;10.30;7.37;;;10.50;99.90;;;;;;5062313;28;20878;-87
2022/04/27 00:08:46;;;;;;;11.80;8.63;;;10.40;99.90;;;;;;5064384;28;20820;-88
2022/04/27 00:11:15;;;;;;;10.63;8.40;;;10.30;99.90;;;;;;5063568;28;20496;-87
2022/04/27 00:13:42;;;;;;;10.70;8.70;;;10.30;99.90;;;;;;5063871;28;20484;-88
2022/04/27 00:16:09;;;;;;;11.07;8.33;;;10.50;99.90;;;;;;5063402;28;20453;-87
2022/04/27 00:18:36;;;;;;;9.97;7.60;;;10.70;99.90;;;;;;5063933;28;20455;-90
2022/04/27 00:21:03;;;;;;;10.60;8.13;;;10.70;99.90;;;;;;5067423;28;20496;-88
2022/04/27 00:23:32;;;;;;;10.03;8.43;;;10.80;99.90;;;;;;5070857;28;20419;-89
2022/04/27 00:25:58;;;;;;;12.27;9.00;;;10.60;99.90;;;;;;5070125;28;20945;-89
2022/04/27 00:28:28;;;;;;;14.07;10.10;;;10.50;99.90;;;;;;5068280;28;20454;-89
2022/04/27 00:30:55;;;;;;;13.10;9.20;;;10.40;99.90;;;;;;5068064;28;20559;-89
2022/04/27 00:33:22;;;;;;;15.13;10.80;;;10.30;99.90;;;;;;5066042;28;20485;-89
2022/04/27 00:35:49;;;;;;;12.67;10.17;;;10.30;99.90;;;;;;5071008;28;20452;-89
2022/04/27 00:38:16;;;;;;;14.43;11.00;;;10.20;99.90;;;;;;5074945;28;20437;-90
2022/04/27 00:40:44;;;;;;;15.63;11.37;;;10.20;99.90;;;;;;5073842;28;20503;-88
2022/04/27 00:43:13;;;;;;;15.83;12.43;;;10.20;99.90;;;;;;5077425;28;20449;-89
2022/04/27 00:45:41;;;;;;;14.10;11.90;;;10.10;99.90;;;;;;5077063;28;20448;-89
2022/04/27 00:48:09;;;;;;;15.97;12.43;;;10.10;99.90;;;;;;5077121;28;20492;-86
2022/04/27 00:50:36;;;;;;;16.80;12.67;;;10.10;99.90;;;;;;5080018;28;20483;-88
2022/04/27 00:53:03;;;;;;;15.87;12.10;;;10.10;99.90;;;;;;5079084;28;20511;-87
2022/04/27 00:55:30;;;;;;;16.60;12.20;;;10.20;99.90;;;;;;5072323;28;20421;-88
2022/04/27 00:57:59;;;;;;;17.37;12.47;;;10.40;99.90;;;;;;5066794;28;20454;-87
2022/04/27 01:00:26;;;;;;;15.03;11.67;;;10.30;99.90;;;;;;5065847;28;20456;-89
2022/04/27 01:02:55;;;;;;;15.07;11.77;;;10.20;99.90;;;;;;5074001;28;20424;-88
2022/04/27 01:05:22;;;;;;;16.73;12.23;;;10.30;99.90;;;;;;5067851;28;20439;-87
2022/04/27 01:07:49;;;;;;;13.73;11.00;;;10.20;99.90;;;;;;5065445;28;20427;-87
2022/04/27 01:10:17;;;;;;;14.43;11.80;;;10.20;99.90;;;;;;5072833;28;20543;-87
2022/04/27 01:12:44;;;;;;;14.67;11.80;;;10.40;99.90;;;;;;5065294;28;20567;-87
2022/04/27 01:15:11;;;;;;;15.30;12.10;;;10.50;99.90;;;;;;5064601;28;20452;-87
2022/04/27 01:17:38;;;;;;;15.60;12.23;;;10.40;99.90;;;;;;5063967;28;20944;-87
2022/04/27 01:20:08;;;;;;;17.20;13.33;;;10.40;99.90;;;;;;5063398;28;20502;-87
2022/04/27 01:22:37;;;;;;;16.20;12.60;;;10.40;99.90;;;;;;5064108;28;20906;-87
2022/04/27 01:25:06;;;;;;;17.87;13.73;;;10.30;99.90;;;;;;5067577;28;20508;-89
2022/04/27 01:27:32;;;;;;;17.00;13.40;;;10.30;99.90;;;;;;5075963;28;20441;-88
2022/04/27 01:30:00;;;;;;;15.83;13.53;;;10.40;99.90;;;;;;5079979;28;20452;-88
2022/04/27 01:32:26;;;;;;;15.70;12.07;;;10.30;99.90;;;;;;5079927;28;20488;-86
2022/04/27 01:34:53;;;;;;;18.98;13.80;;;10.30;99.90;;;;;;5080072;28;20190;-87
2022/04/27 01:40:08;;;;;;;15.83;12.13;;;10.40;99.90;;;;;;5075807;28;20415;-89
2022/04/27 01:42:35;;;;;;;18.17;13.93;;;10.30;99.90;;;;;;5069189;28;20465;-89
2022/04/27 01:45:02;;;;;;;14.77;11.40;;;10.30;99.90;;;;;;5066487;28;20492;-89
2022/04/27 01:47:33;;;;;;;17.67;12.07;;;10.50;99.90;;;;;;5064771;28;20449;-87
2022/04/27 01:50:00;;;;;;;18.50;13.10;;;10.60;99.90;;;;;;5066447;28;20463;-89
2022/04/27 01:55:13;;;;;;;15.80;12.70;;;10.30;99.90;;;;;;5072581;28;20646;-88
2022/04/27 01:57:39;;;;;;;15.90;12.67;;;10.50;99.90;;;;;;5068065;28;20541;-88
2022/04/27 02:00:07;;;;;;;18.77;12.77;;;10.60;99.90;;;;;;5066801;28;20449;-87
2022/04/27 02:02:37;;;;;;;18.07;13.90;;;10.70;99.90;;;;;;5317937;22;20599;-86
2022/04/27 02:05:07;;;;;;;19.10;14.83;;;10.50;99.90;;;;;;5080842;28;20446;-86
2022/04/27 02:07:53;;;;;;;20.77;15.77;;;10.40;99.90;;;;;;5077584;28;20495;-86
2022/04/27 02:10:32;;;;;;;19.60;15.10;;;10.40;99.90;;;;;;5079077;28;20426;-87
2022/04/27 02:13:04;;;;;;;20.47;14.93;;;10.60;99.90;;;;;;5079673;28;20557;-87
2022/04/27 02:15:47;;;;;;;25.20;17.23;;;10.50;99.90;;;;;;5080109;28;20932;-86
2022/04/27 02:24:22;;;;;;;24.53;18.67;;;10.60;99.90;;;;;;5106953;28;20415;-86
2022/04/27 02:26:58;;;;;;;26.57;17.77;;;10.60;99.90;;;;;;5097153;28;20513;-87
2022/04/27 02:29:43;;;;;;;26.20;18.07;;;10.60;99.90;;;;;;5096634;28;20572;-87
2022/04/27 02:39:01;;;;;;;26.23;18.57;;;10.70;99.90;;;;;;5115034;28;20455;-85
2022/04/27 02:41:34;;;;;;;23.53;17.70;;;10.50;99.90;;;;;;5102274;28;20501;-87
2022/04/27 02:44:06;;;;;;;23.93;17.23;;;10.70;99.90;;;;;;5100805;28;20461;-86
2022/04/27 02:46:34;;;;;;;25.92;18.35;;;10.50;99.90;;;;;;5101405;28;20760;-86
2022/04/27 02:51:51;;;;;;;24.17;17.53;;;10.60;99.90;;;;;;5101382;28;20469;-86
2022/04/27 02:54:19;;;;;;;24.80;16.53;;;10.60;99.90;;;;;;5103404;28;20471;-86
2022/04/27 02:59:52;;;;;;;22.67;16.50;;;10.40;99.90;;;;;;5103338;28;21022;-87
2022/04/27 03:02:33;;;;;;;24.30;17.57;;;10.30;99.90;;;;;;5103740;28;20473;-87
2022/04/27 03:05:27;;;;;;;22.47;16.37;;;10.40;99.90;;;;;;5102722;28;20466;-85
2022/04/27 03:08:05;;;;;;;24.83;17.30;;;10.40;99.90;;;;;;5106495;28;20447;-86
2022/04/27 03:10:49;;;;;;;24.30;17.50;;;10.40;99.90;;;;;;5102138;28;20890;-86
2022/04/27 03:13:22;;;;;;;20.83;14.83;;;10.40;99.90;;;;;;5104898;28;20522;-85
2022/04/27 03:15:52;;;;;;;20.47;13.70;;;10.40;99.90;;;;;;5275659;22;20498;-86
2022/04/27 03:18:20;;;;;;;21.00;16.27;;;10.20;99.90;;;;;;5094539;28;20479;-87
2022/04/27 03:21:02;;;;;;;20.60;14.80;;;10.30;99.90;;;;;;5088358;28;20472;-85
2022/04/27 03:23:35;;;;;;;22.03;16.00;;;10.30;99.90;;;;;;5060485;28;20437;-86
2022/04/27 03:26:10;;;;;;;22.87;15.53;;;10.30;99.90;;;;;;5058989;28;20425;-86
2022/04/27 03:28:44;;;;;;;21.53;15.20;;;10.40;99.90;;;;;;5039675;28;20440;-87
2022/04/27 03:31:23;;;;;;;19.87;13.93;;;10.50;99.90;;;;;;5057188;28;20555;-87
2022/04/27 03:33:59;;;;;;;21.50;16.07;;;10.50;99.90;;;;;;5053994;28;20912;-86
2022/04/27 03:36:39;;;;;;;19.30;13.33;;;10.50;99.90;;;;;;5054764;28;20448;-86
2022/04/27 03:39:21;;;;;;;25.30;16.20;;;10.50;99.90;;;;;;5038525;28;20459;-85
2022/04/27 03:41:57;;;;;;;21.47;15.10;;;10.40;99.90;;;;;;5074353;28;20474;-85
2022/04/27 03:44:24;;;;;;;24.40;15.97;;;10.50;99.90;;;;;;5417999;22;20488;-84
2022/04/27 03:54:41;;;;;;;22.87;15.47;;;10.60;99.90;;;;;;5370063;22;20484;-85
2022/04/27 03:57:18;;;;;;;22.90;15.53;;;10.60;99.90;;;;;;5040878;28;20996;-86
2022/04/27 03:59:50;;;;;;;19.00;15.00;;;10.50;99.90;;;;;;5056198;28;20510;-86
2022/04/27 04:02:18;;;;;;;20.37;14.20;;;10.40;99.90;;;;;;5058371;28;20519;-87
2022/04/27 04:04:45;;;;;;;19.50;14.70;;;10.50;99.90;;;;;;5054861;28;20987;-85
2022/04/27 04:07:16;;;;;;;18.80;14.10;;;10.50;99.90;;;;;;5039152;28;20504;-87
2022/04/27 04:09:46;;;;;;;19.83;13.60;;;10.50;99.90;;;;;;5067055;28;20457;-87
2022/04/27 04:12:15;;;;;;;17.97;13.80;;;10.60;99.90;;;;;;5058886;28;20979;-86
2022/04/27 04:14:42;;;;;;;19.60;14.50;;;10.60;99.90;;;;;;5058543;28;20498;-86
2022/04/27 04:17:13;;;;;;;21.77;17.03;;;10.40;99.90;;;;;;5057203;28;20453;-88
2022/04/27 04:19:40;;;;;;;21.50;15.77;;;10.30;99.90;;;;;;5057429;28;20433;-86
2022/04/27 04:22:08;;;;;;;22.20;16.57;;;10.30;99.90;;;;;;5042517;28;20481;-85
2022/04/27 04:24:35;;;;;;;25.00;17.40;;;10.20;99.90;;;;;;5065919;28;20449;-85
2022/04/27 04:29:49;;;;;;;22.43;16.10;;;10.40;99.90;;;;;;5058048;28;20475;-86
2022/04/27 04:32:17;;;;;;;23.20;16.10;;;10.40;99.90;;;;;;5058354;28;20451;-86
2022/04/27 04:34:44;;;;;;;23.60;16.40;;;10.40;99.90;;;;;;5056778;28;20483;-86
2022/04/27 04:37:11;;;;;;;23.13;15.70;;;10.40;99.90;;;;;;5056471;28;20431;-86
2022/04/27 04:39:39;;;;;;;24.67;16.73;;;10.40;99.90;;;;;;5058062;28;20807;-86
2022/04/27 04:42:08;;;;;;;21.67;17.07;;;10.50;99.90;;;;;;5057140;28;20495;-85
2022/04/27 04:44:38;;;;;;;23.67;15.37;;;10.40;99.90;;;;;;5057719;28;20463;-86
2022/04/27 04:47:06;;;;;;;23.13;16.20;;;10.40;99.90;;;;;;5057648;28;20468;-87
2022/04/27 04:49:33;;;;;;;21.00;16.40;;;10.50;99.90;;;;;;5056795;28;20441;-87
2022/04/27 04:52:00;;;;;;;23.53;16.47;;;10.50;99.90;;;;;;5055829;28;20468;-86
2022/04/27 04:54:27;;;;;;;22.10;16.63;;;10.50;99.90;;;;;;5056235;28;20858;-86
2022/04/27 04:56:54;;;;;;;21.70;15.70;;;10.40;99.90;;;;;;5056763;28;20449;-86
2022/04/27 04:59:23;;;;;;;24.67;17.77;;;10.40;99.90;;;;;;5056029;28;20444;-85
2022/04/27 05:01:51;;;;;;;24.97;17.10;;;10.50;99.90;;;;;;5056262;28;20976;-87
2022/04/27 05:04:23;;;;;;;24.33;17.17;;;10.50;99.90;;;;;;5061428;28;20531;-86
2022/04/27 05:06:54;;;;;;;24.67;17.47;;;10.50;99.90;;;;;;5060712;28;20483;-86
2022/04/27 05:09:23;;;;;;;22.23;17.93;;;10.50;99.90;;;;;;5061609;28;20463;-86
2022/04/27 05:11:56;;;;;;;21.73;17.17;;;10.50;99.90;;;;;;5077808;28;20526;-86
2022/04/27 05:14:38;;;;;;;23.27;16.20;;;10.60;99.90;;;;;;5060089;28;20486;-86
2022/04/27 05:17:08;;;;;;;24.30;16.43;;;10.70;99.90;;;;;;5042546;28;20472;-87
2022/04/27 05:19:45;;;;;;;23.30;18.00;;;10.70;99.90;;;;;;5040998;28;20492;-87
2022/04/27 05:22:14;;;;;;;27.17;16.97;;;10.80;99.90;;;;;;5063294;28;20471;-87
2022/04/27 05:24:58;;;;;;;24.40;16.07;;;10.70;99.90;;;;;;5069336;28;20444;-87
2022/04/27 05:27:26;;;;;;;23.83;17.30;;;10.60;99.90;;;;;;5058308;28;20805;-88
2022/04/27 05:32:48;;;;;;;24.73;17.93;;;10.60;99.90;;;;;;5058989;28;20452;-87
2022/04/27 05:35:18;;;;;;;25.03;17.87;;;10.60;99.90;;;;;;5059900;28;20483;-86
2022/04/27 05:37:49;;;;;;;23.47;18.00;;;10.60;99.90;;;;;;5059020;28;20913;-87
2022/04/27 05:40:17;;;;;;;21.97;16.63;;;10.60;99.90;;;;;;5069631;28;20457;-85
2022/04/27 05:42:45;;;;;;;21.70;16.37;;;10.60;99.90;;;;;;5073272;28;20476;-86
2022/04/27 05:45:14;;;;;;;22.63;17.23;;;10.60;99.90;;;;;;5071881;28;20441;-87
2022/04/27 05:47:44;;;;;;;22.80;17.23;;;10.60;99.90;;;;;;5065719;28;20445;-86
2022/04/27 05:50:11;;;;;;;24.00;16.40;;;10.60;99.90;;;;;;5067159;28;20495;-86
2022/04/27 05:52:54;;;;;;;23.43;17.90;;;10.60;99.90;;;;;;5065758;28;20476;-86
2022/04/27 05:55:21;;;;;;;22.40;15.43;;;10.70;99.90;;;;;;5061184;28;20480;-87
2022/04/27 05:57:49;;;;;;;21.80;16.50;;;10.60;99.90;;;;;;5069397;28;20460;-86
2022/04/27 06:00:19;;;;;;;23.43;16.90;;;10.80;99.90;;;;;;5060878;28;20452;-86
2022/04/27 06:02:48;;;;;;;23.90;17.13;;;10.90;99.90;;;;;;5060021;28;20456;-87
2022/04/27 06:05:17;;;;;;;21.07;15.60;;;11.00;99.90;;;;;;5059100;28;20882;-87
2022/04/27 06:07:46;;;;;;;21.40;16.63;;;11.10;99.90;;;;;;5058773;28;20530;-87
2022/04/27 06:10:18;;;;;;;22.50;16.30;;;11.10;99.90;;;;;;5062053;28;20443;-86
2022/04/27 06:12:54;;;;;;;20.83;15.20;;;11.10;99.90;;;;;;5062596;28;20472;-86
2022/04/27 06:15:23;;;;;;;25.87;17.70;;;11.30;99.90;;;;;;5077480;28;20474;-86
2022/04/27 06:17:52;;;;;;;19.70;14.83;;;11.10;99.90;;;;;;5403125;22;20963;-87
2022/04/27 06:23:13;;;;;;;20.73;16.10;;;11.10;99.90;;;;;;5080222;28;20980;-87
2022/04/27 06:25:53;;;;;;;21.13;15.73;;;10.90;99.90;;;;;;5081714;28;20764;-87
2022/04/27 06:28:29;;;;;;;24.03;16.87;;;11.10;99.90;;;;;;5085626;28;20520;-85
2022/04/27 06:31:06;;;;;;;20.97;15.17;;;11.20;99.90;;;;;;5082928;28;20880;-86
2022/04/27 06:33:36;;;;;;;21.00;15.20;;;11.30;99.90;;;;;;5078019;28;20483;-86
2022/04/27 06:36:09;;;;;;;19.27;13.97;;;11.40;99.90;;;;;;5078244;28;20567;-86
2022/04/27 06:38:36;;;;;;;20.43;15.23;;;11.30;99.90;;;;;;5092202;28;20396;-87
2022/04/27 06:41:05;;;;;;;19.20;15.07;;;11.00;99.90;;;;;;5095840;28;20452;-87
2022/04/27 06:43:46;;;;;;;19.37;13.80;;;11.10;99.90;;;;;;5089990;28;20431;-87
2022/04/27 06:46:16;;;;;;;21.10;16.03;;;11.20;99.90;;;;;;5094915;28;20455;-87
2022/04/27 06:48:45;;;;;;;21.40;15.20;;;11.10;99.90;;;;;;5088647;28;20486;-87
2022/04/27 06:51:13;;;;;;;21.20;14.93;;;11.10;99.90;;;;;;5067064;28;20468;-86
2022/04/27 06:53:40;;;;;;;21.63;15.30;;;11.10;99.90;;;;;;5087621;28;20419;-87
2022/04/27 06:56:07;;;;;;;19.73;14.40;;;11.20;99.90;;;;;;5090051;28;20535;-87
2022/04/27 06:58:35;;;;;;;21.23;15.50;;;11.40;99.90;;;;;;5085002;28;20456;-87
2022/04/27 07:01:07;;;;;;;18.83;14.43;;;11.40;99.90;;;;;;5080986;28;20436;-86
2022/04/27 07:03:56;;;;;;;17.67;15.33;;;11.40;99.90;;;;;;5081120;28;20446;-86
2022/04/27 07:09:15;;;;;;;16.40;13.57;;;11.50;99.90;;;;;;5082674;28;20460;-86
2022/04/27 07:11:44;;;;;;;17.77;12.33;;;11.40;99.90;;;;;;5062403;28;20506;-87
2022/04/27 07:14:16;;;;;;;16.20;13.00;;;11.30;99.90;;;;;;5081182;28;20567;-86
2022/04/27 07:16:43;;;;;;;18.40;13.07;;;11.20;99.90;;;;;;5082275;28;20482;-87
2022/04/27 07:19:13;;;;;;;17.87;13.17;;;11.10;99.90;;;;;;5101482;28;20466;-87
2022/04/27 07:27:27;;;;;;;17.47;13.00;;;11.20;99.90;;;;;;5103262;28;20407;-87
2022/04/27 07:32:38;;;;;;;17.07;12.17;;;11.20;99.90;;;;;;5099783;28;20471;-87
2022/04/27 07:38:03;;;;;;;16.63;10.80;;;11.20;99.90;;;;;;5095136;28;20435;-87
2022/04/27 07:40:31;;;;;;;20.13;13.63;;;11.30;99.90;;;;;;5098238;28;20574;-87
2022/04/27 07:49:08;;;;;;;16.43;11.10;;;11.60;99.90;;;;;;5133172;22;20494;-89
2022/04/27 07:51:45;;;;;;;15.63;11.13;;;11.80;99.90;;;;;;5084252;28;20479;-87
2022/04/27 07:54:18;;;;;;;15.03;11.63;;;11.90;99.90;;;;;;5081334;28;20791;-87
2022/04/27 07:56:51;;;;;;;15.83;11.00;;;12.00;99.90;;;;;;5079442;28;20428;-87
2022/04/27 07:59:32;;;;;;;17.80;12.10;;;12.20;99.90;;;;;;5081310;28;20442;-86
2022/04/27 08:04:34;;;;;;;13.20;8.57;;;12.00;99.90;;;;;;5043469;28;20466;-89
2022/04/27 08:07:03;;;;;;;18.23;9.97;;;12.00;99.90;;;;;;5044955;28;20474;-88
2022/04/27 08:09:33;;;;;;;16.80;11.40;;;12.00;99.90;;;;;;5041192;28;20457;-87
2022/04/27 08:12:02;;;;;;;15.67;11.63;;;12.00;99.90;;;;;;5046350;28;20445;-88
2022/04/27 08:14:33;;;;;;;13.30;9.97;;;12.20;99.90;;;;;;5065834;28;20416;-87
2022/04/27 08:17:06;;;;;;;14.50;10.20;;;12.40;99.90;;;;;;5060873;28;20444;-88
2022/04/27 08:19:39;;;;;;;13.97;9.53;;;12.30;99.90;;;;;;5062258;28;20437;-88
2022/04/27 08:22:08;;;;;;;13.20;9.67;;;12.30;99.90;;;;;;5066567;28;20532;-88
2022/04/27 08:24:41;;;;;;;13.60;10.37;;;12.30;99.90;;;;;;5069001;28;20510;-87
2022/04/27 08:27:14;;;;;;;14.30;11.20;;;12.20;99.90;;;;;;5067131;28;20435;-88
2022/04/27 08:29:42;;;;;;;14.77;10.00;;;12.30;99.90;;;;;;5061253;28;20442;-88
2022/04/27 08:32:09;;;;;;;18.73;9.70;;;12.50;99.90;;;;;;5059591;28;20430;-88
2022/04/27 08:34:37;;;;;;;14.17;8.87;;;12.70;99.90;;;;;;5058601;28;20520;-88
2022/04/27 08:37:10;;;;;;;12.57;9.10;;;12.50;99.90;;;;;;5067168;28;20423;-88
2022/04/27 08:39:42;;;;;;;13.37;9.57;;;12.40;99.90;;;;;;5069208;28;20453;-89
2022/04/27 08:42:15;;;;;;;15.53;9.60;;;12.50;99.90;;;;;;5065980;28;20453;-88
2022/04/27 08:44:45;;;;;;;12.33;10.13;;;12.60;99.90;;;;;;5066820;28;20451;-87
2022/04/27 08:47:12;;;;;;;13.17;10.70;;;12.60;99.90;;;;;;5076234;28;20502;-90
2022/04/27 08:49:40;;;;;;;14.03;10.43;;;12.60;99.90;;;;;;5076451;28;20464;-88
2022/04/27 08:52:19;;;;;;;14.93;11.60;;;12.70;99.90;;;;;;5070351;28;20452;-87
2022/04/27 08:54:52;;;;;;;14.67;11.23;;;12.80;99.90;;;;;;5065683;28;20488;-88
2022/04/27 08:57:24;;;;;;;15.77;10.87;;;12.80;99.90;;;;;;5065548;28;20456;-88
2022/04/27 09:00:06;;;;;;;14.37;9.93;;;12.90;99.90;;;;;;5066760;28;20435;-89
2022/04/27 09:02:33;;;;;;;12.60;9.63;;;13.00;99.90;;;;;;5066984;28;20450;-87
2022/04/27 09:05:10;;;;;;;13.17;10.63;;;13.10;99.90;;;;;;5064736;28;20444;-87
2022/04/27 09:07:43;;;;;;;13.30;9.73;;;13.10;99.90;;;;;;5062458;28;20851;-87
2022/04/27 09:10:12;;;;;;;13.87;10.13;;;13.40;99.90;;;;;;5063825;28;20774;-88
2022/04/27 09:12:46;;;;;;;14.07;10.50;;;13.60;99.90;;;;;;5064602;28;20435;-87
2022/04/27 09:15:14;;;;;;;14.93;11.60;;;13.70;99.90;;;;;;5066472;28;20427;-88
2022/04/27 09:20:51;;;;;;;11.57;9.13;;;13.80;99.90;;;;;;5061413;28;20390;-88
2022/04/27 09:23:26;;;;;;;14.47;8.50;;;13.90;99.90;;;;;;5061249;28;20484;-87
2022/04/27 09:25:56;;;;;;;11.50;8.47;;;13.60;99.90;;;;;;5062578;28;20436;-86
2022/04/27 09:28:29;;;;;;;10.30;7.70;;;13.80;99.90;;;;;;5062293;28;20465;-86
2022/04/27 09:30:57;;;;;;;10.93;8.50;;;13.90;99.90;;;;;;5063231;28;20411;-88
2022/04/27 09:33:34;;;;;;;11.77;8.03;;;14.00;99.90;;;;;;5064128;28;20439;-88
2022/04/27 09:36:22;;;;;;;10.60;7.50;;;14.00;99.90;;;;;;5064026;28;20453;-87
2022/04/27 09:39:02;;;;;;;12.67;8.40;;;13.90;99.90;;;;;;5070226;28;20841;-88
2022/04/27 09:41:41;;;;;;;12.70;7.90;;;13.60;99.90;;;;;;5064766;28;20451;-87
2022/04/27 09:44:30;;;;;;;10.83;6.97;;;13.90;99.90;;;;;;5063413;28;20488;-87
2022/04/27 09:46:57;;;;;;;11.83;6.93;;;13.80;99.90;;;;;;5065111;28;20893;-88
2022/04/27 09:49:30;;;;;;;11.30;7.73;;;14.00;99.90;;;;;;5065142;28;20495;-88
2022/04/27 09:51:57;;;;;;;10.40;7.67;;;13.90;99.90;;;;;;5064166;28;20433;-87
2022/04/27 09:54:28;;;;;;;8.43;6.00;;;14.00;99.90;;;;;;5067907;28;20419;-90
2022/04/27 09:56:57;;;;;;;9.90;7.30;;;14.10;99.90;;;;;;5070076;28;20461;-88
2022/04/27 09:59:29;;;;;;;8.30;5.83;;;14.10;99.90;;;;;;5070844;28;20495;-89
2022/04/27 10:02:01;;;;;;;7.10;4.80;;;14.10;99.90;;;;;;5067752;28;20464;-88
2022/04/27 10:04:30;;;;;;;5.20;2.93;;;14.20;99.90;;;;;;5069656;28;20442;-89
2022/04/27 10:07:01;;;;;;;7.50;4.80;;;14.20;99.90;;;;;;5076136;28;20415;-90
2022/04/27 10:09:31;;;;;;;7.73;4.10;;;14.10;99.90;;;;;;5073593;28;20489;-89
2022/04/27 10:11:59;;;;;;;5.83;3.53;;;14.00;99.90;;;;;;5072324;28;20448;-88
2022/04/27 10:14:30;;;;;;;6.40;4.43;;;14.10;99.90;;;;;;5071091;28;20494;-87
2022/04/27 10:16:58;;;;;;;7.63;5.30;;;13.80;99.90;;;;;;5075225;28;20516;-89
2022/04/27 10:19:25;;;;;;;7.17;5.20;;;13.80;99.90;;;;;;5068050;28;20908;-88
2022/04/27 10:22:00;;;;;;;9.00;5.20;;;13.90;99.90;;;;;;5064429;28;20443;-89
2022/04/27 10:24:52;;;;;;;6.33;4.30;;;14.20;99.90;;;;;;5066846;28;20438;-88
2022/04/27 10:27:20;;;;;;;7.17;5.10;;;14.40;99.90;;;;;;5065878;28;20442;-88
2022/04/27 10:29:52;;;;;;;6.67;4.47;;;14.40;99.90;;;;;;5064437;28;20458;-90
2022/04/27 10:32:39;;;;;;;6.07;4.23;;;14.50;99.90;;;;;;5063823;28;20447;-89
2022/04/27 10:35:17;;;;;;;7.50;4.70;;;14.40;99.90;;;;;;5065033;28;20407;-89
2022/04/27 10:37:48;;;;;;;11.43;6.13;;;14.30;99.90;;;;;;5065420;28;20443;-88
2022/04/27 10:40:46;;;;;;;6.43;4.83;;;14.20;99.90;;;;;;5073022;28;20391;-88
2022/04/27 10:43:28;;;;;;;7.23;4.93;;;14.50;99.90;;;;;;5041879;28;20447;-89
2022/04/27 10:45:55;;;;;;;9.13;5.30;;;14.40;99.90;;;;;;5065270;28;20405;-90
2022/04/27 10:48:24;;;;;;;8.07;6.00;;;14.40;99.90;;;;;;5067435;28;20854;-89
2022/04/27 10:51:00;;;;;;;8.37;4.80;;;14.40;99.90;;;;;;5071122;28;20412;-85
2022/04/27 10:53:29;;;;;;;6.20;4.30;;;14.50;99.90;;;;;;5077476;28;20464;-85
2022/04/27 10:55:59;;;;;;;6.63;4.03;;;14.60;99.90;;;;;;5077813;28;20431;-87
2022/04/27 10:58:34;;;;;;;7.67;4.30;;;14.70;99.90;;;;;;5068002;28;20392;-87
2022/04/27 11:01:30;;;;;;;6.70;4.53;;;14.80;99.90;;;;;;5061118;28;20443;-87
2022/04/27 11:04:11;;;;;;;8.40;4.03;;;14.80;99.90;;;;;;5063266;28;20447;-88
2022/04/27 11:07:17;;;;;;;7.73;4.30;;;14.80;99.90;;;;;;5071273;28;20412;-84
2022/04/27 11:10:10;;;;;;;6.67;4.80;;;14.70;99.90;;;;;;5077066;28;20439;-86
2022/04/27 11:12:56;;;;;;;7.27;4.27;;;14.50;99.90;;;;;;5062460;28;20443;-87
2022/04/27 11:15:25;;;;;;;6.73;4.70;;;14.90;99.90;;;;;;5062722;28;20431;-88
2022/04/27 11:17:57;;;;;;;6.50;3.83;;;15.10;99.90;;;;;;5067909;28;20514;-88
2022/04/27 11:20:29;;;;;;;7.20;5.43;;;15.10;99.90;;;;;;5065576;28;20452;-89
2022/04/27 11:23:20;;;;;;;5.40;3.80;;;15.10;99.90;;;;;;5065687;28;20503;-88
2022/04/27 11:25:53;;;;;;;7.67;5.03;;;15.30;99.90;;;;;;5071321;28;20495;-87
2022/04/27 11:28:22;;;;;;;8.20;4.93;;;15.30;99.90;;;;;;5073545;28;20446;-89
2022/04/27 11:30:49;;;;;;;7.70;5.40;;;15.20;99.90;;;;;;5066141;28;20491;-89
2022/04/27 11:33:18;;;;;;;7.63;4.63;;;14.80;99.90;;;;;;5064375;28;20476;-89
2022/04/27 11:35:47;;;;;;;7.10;4.73;;;14.70;99.90;;;;;;5066007;28;20485;-87
2022/04/27 11:38:18;;;;;;;5.57;4.30;;;14.90;99.90;;;;;;5065516;28;20458;-88
2022/04/27 11:40:46;;;;;;;6.60;4.70;;;14.80;99.90;;;;;;5066253;28;20445;-88
2022/04/27 11:43:14;;;;;;;9.17;4.30;;;14.90;99.90;;;;;;5066550;28;20447;-88
2022/04/27 11:45:42;;;;;;;7.27;4.73;;;15.20;99.90;;;;;;5072336;28;20445;-87
2022/04/27 11:48:28;;;;;;;9.57;4.90;;;15.20;99.90;;;;;;5069707;28;20468;-89
2022/04/27 11:50:59;;;;;;;8.77;5.50;;;15.10;99.90;;;;;;5068111;28;20408;-89
2022/04/27 11:53:27;;;;;;;6.70;4.67;;;15.30;99.90;;;;;;5067788;28;20442;-88
2022/04/27 11:55:54;;;;;;;8.37;5.17;;;15.50;99.90;;;;;;5067643;28;20515;-87
2022/04/27 11:58:23;;;;;;;6.27;5.10;;;15.70;99.90;;;;;;5066423;28;20447;-87
2022/04/27 12:00:55;;;;;;;6.83;5.40;;;15.80;99.90;;;;;;5065718;28;20507;-87
2022/04/27 12:03:22;;;;;;;6.97;5.33;;;15.60;99.90;;;;;;5067312;28;20546;-88
2022/04/27 12:05:51;;;;;;;7.00;5.30;;;15.70;99.90;;;;;;5066327;28;20476;-88
2022/04/27 12:08:20;;;;;;;7.10;5.10;;;15.90;99.90;;;;;;5067844;28;20448;-89
2022/04/27 12:10:49;;;;;;;7.80;5.07;;;16.10;99.90;;;;;;5068807;28;20450;-88
2022/04/27 12:13:17;;;;;;;7.17;4.60;;;16.20;99.60;;;;;;5067123;28;20492;-89
2022/04/27 12:15:54;;;;;;;7.70;4.63;;;16.20;99.10;;;;;;5065741;28;20436;-89
2022/04/27 12:18:25;;;;;;;6.57;5.10;;;16.30;98.70;;;;;;5072417;28;20440;-89
2022/04/27 12:20:55;;;;;;;7.27;5.10;;;16.10;99.50;;;;;;5074884;28;20424;-88
2022/04/27 12:23:23;;;;;;;6.60;4.77;;;16.20;98.80;;;;;;5071581;28;20468;-89
2022/04/27 12:25:55;;;;;;;6.37;4.80;;;16.00;99.00;;;;;;5069899;28;20424;-88
2022/04/27 12:28:24;;;;;;;6.70;5.00;;;16.10;99.50;;;;;;5080388;28;20417;-83
2022/04/27 12:30:53;;;;;;;5.80;4.30;;;16.20;99.20;;;;;;5080465;28;20468;-86
2022/04/27 12:33:26;;;;;;;6.87;4.37;;;16.20;99.00;;;;;;5075547;28;20511;-87
2022/04/27 12:38:59;;;;;;;6.40;4.63;;;16.20;98.80;;;;;;5065779;28;20420;-87
2022/04/27 12:41:31;;;;;;;8.63;4.53;;;16.30;98.30;;;;;;5067982;28;20447;-88
2022/04/27 12:44:03;;;;;;;5.47;4.57;;;16.30;98.20;;;;;;5073766;28;20469;-87
2022/04/27 12:46:30;;;;;;;6.50;4.80;;;16.40;97.90;;;;;;5080114;28;20404;-88
2022/04/27 12:49:04;;;;;;;5.90;4.80;;;16.20;98.60;;;;;;5078104;28;20452;-88
2022/04/27 12:51:37;;;;;;;6.03;4.37;;;16.00;98.30;;;;;;5071358;28;20423;-89
2022/04/27 12:54:04;;;;;;;5.40;4.60;;;15.90;97.60;;;;;;5068762;28;20985;-89
2022/04/27 12:56:32;;;;;;;6.10;4.50;;;16.00;97.90;;;;;;5065742;28;20484;-89
2022/04/27 12:59:04;;;;;;;6.77;4.53;;;16.20;97.80;;;;;;5067854;28;20427;-88
2022/04/27 13:01:33;;;;;;;5.90;4.50;;;16.30;97.80;;;;;;5067547;28;20440;-87
2022/04/27 13:04:05;;;;;;;5.73;4.33;;;16.20;97.70;;;;;;5068864;28;20480;-89
2022/04/27 13:06:33;;;;;;;5.90;4.13;;;16.10;98.10;;;;;;5069064;28;20408;-88
2022/04/27 13:11:55;;;;;;;6.97;5.10;;;16.00;98.40;;;;;;5069413;28;20448;-87
2022/04/27 13:11:57;;;;;;;6.30;4.30;;;15.80;98.50;;;;;;5069613;28;20403;-89
2022/04/27 13:14:30;;;;;;;5.70;4.33;;;15.80;98.50;;;;;;5070199;28;20425;-88
2022/04/27 13:16:57;;;;;;;5.50;4.33;;;15.70;99.50;;;;;;5070915;28;20529;-89
2022/04/27 13:19:27;;;;;;;7.23;5.00;;;15.70;99.90;;;;;;5068617;28;20501;-89
2022/04/27 13:21:55;;;;;;;7.43;5.77;;;15.70;99.70;;;;;;5069724;28;20469;-88
2022/04/27 13:24:22;;;;;;;7.27;6.17;;;15.70;99.90;;;;;;5069116;28;20543;-88
2022/04/27 13:26:49;;;;;;;8.73;5.90;;;15.40;99.90;;;;;;5068503;28;20479;-89
2022/04/27 13:29:16;;;;;;;7.77;6.20;;;15.30;99.90;;;;;;5068468;28;20516;-87
2022/04/27 13:31:43;;;;;;;10.30;6.57;;;15.40;99.90;;;;;;5066728;28;20460;-88
2022/04/27 13:34:10;;;;;;;9.17;5.93;;;15.40;99.90;;;;;;5065110;28;20559;-87
2022/04/27 13:36:40;;;;;;;8.43;5.73;;;15.40;99.90;;;;;;5067327;28;20480;-87
2022/04/27 13:39:08;;;;;;;8.47;6.10;;;15.50;99.90;;;;;;5068429;28;20406;-88
2022/04/27 13:41:35;;;;;;;7.93;5.87;;;15.70;99.90;;;;;;5069131;28;20448;-88
2022/04/27 13:44:07;;;;;;;8.23;5.47;;;15.80;99.90;;;;;;5068063;28;20984;-88
2022/04/27 13:46:38;;;;;;;7.87;6.60;;;15.90;99.90;;;;;;5069897;28;20446;-89
2022/04/27 13:49:05;;;;;;;7.07;5.40;;;16.00;99.90;;;;;;5074254;28;20408;-88
2022/04/27 13:51:42;;;;;;;;;;;;;;;;;;;;;
2022/04/27 13:54:12;;;;;;;7.87;4.87;;;16.10;99.90;;;;;;5072810;28;20442;-88
2022/04/27 13:56:39;;;;;;;9.20;4.83;;;16.00;99.90;;;;;;5068022;28;20505;-87
2022/04/27 13:59:06;;;;;;;7.33;5.07;;;15.80;99.90;;;;;;5069543;28;20458;-89
2022/04/27 14:01:34;;;;;;;11.80;5.63;;;15.70;99.90;;;;;;5068683;28;20438;-89
2022/04/27 14:04:01;;;;;;;6.80;5.67;;;15.70;99.90;;;;;;5179001;22;20485;-87
2022/04/27 14:06:35;;;;;;;8.30;5.93;;;15.70;99.90;;;;;;5115476;28;20429;-87